createdAt,value
2022-11-10T00:02:16.404Z,12.50
2022-11-10T00:04:44.184Z,10.27
2022-11-10T00:07:12.056Z,12.90
2022-11-10T00:09:41.423Z,8.00
2022-11-10T00:12:09.290Z,11.87
2022-11-10T00:14:54.714Z,7.07
2022-11-10T00:17:22.351Z,5.43
2022-11-10T00:19:50.228Z,11.10
2022-11-10T00:22:18.057Z,11.40
2022-11-10T00:24:47.366Z,9.57
2022-11-10T00:27:15.740Z,6.33
2022-11-10T00:29:43.674Z,10.27
2022-11-10T00:32:12.038Z,6.67
2022-11-10T00:34:39.905Z,7.23
2022-11-10T00:37:07.992Z,6.80
2022-11-10T00:39:36.817Z,7.00
2022-11-10T00:42:06.327Z,9.90
2022-11-10T00:44:34.101Z,7.13
2022-11-10T00:47:02.000Z,8.70
2022-11-10T00:49:29.826Z,12.13
2022-11-10T00:51:57.843Z,9.57
2022-11-10T00:54:25.825Z,10.70
2022-11-10T00:56:53.608Z,7.90
2022-11-10T00:59:23.050Z,8.47
2022-11-10T01:01:50.843Z,8.97
2022-11-10T01:04:18.867Z,7.90
2022-11-10T01:06:48.059Z,7.37
2022-11-10T01:09:16.301Z,8.50
2022-11-10T01:11:44.124Z,8.70
2022-11-10T01:14:12.132Z,11.17
2022-11-10T01:16:41.331Z,5.40
2022-11-10T01:19:09.039Z,10.07
2022-11-10T01:21:36.760Z,9.17
2022-11-10T01:24:04.780Z,7.07
2022-11-10T01:26:32.549Z,12.00
2022-11-10T01:29:00.745Z,8.50
2022-11-10T01:31:28.506Z,12.53
2022-11-10T01:33:59.987Z,10.23
2022-11-10T01:36:27.869Z,10.53
2022-11-10T01:38:55.579Z,10.90
2022-11-10T01:41:23.594Z,9.97
2022-11-10T01:43:51.465Z,7.87
2022-11-10T01:46:19.232Z,11.17
2022-11-10T01:48:49.199Z,9.67
2022-11-10T01:51:22.083Z,8.97
2022-11-10T01:53:54.713Z,10.43
2022-11-10T01:56:25.593Z,11.23
2022-11-10T01:58:57.610Z,7.90
2022-11-10T02:01:25.825Z,11.87
2022-11-10T02:03:56.956Z,5.90
2022-11-10T02:06:29.297Z,11.10
2022-11-10T02:08:58.501Z,8.87
2022-11-10T02:11:26.476Z,7.53
2022-11-10T02:13:54.846Z,9.27
2022-11-10T02:16:23.173Z,8.83
2022-11-10T02:18:51.154Z,10.10
2022-11-10T02:21:21.523Z,10.70
2022-11-10T02:23:53.221Z,11.23
2022-11-10T02:26:24.273Z,11.20
2022-11-10T02:28:51.985Z,10.97
2022-11-10T02:31:19.768Z,13.93
2022-11-10T02:33:48.080Z,8.40
2022-11-10T02:36:15.936Z,12.27
2022-11-10T02:38:45.162Z,9.03
2022-11-10T02:41:12.957Z,8.87
2022-11-10T02:43:41.045Z,7.20
2022-11-10T02:46:08.694Z,7.67
2022-11-10T02:48:36.449Z,14.13
2022-11-10T02:51:04.272Z,13.37
2022-11-10T02:53:32.032Z,10.40
2022-11-10T02:56:01.084Z,9.93
2022-11-10T02:58:28.762Z,10.23
2022-11-10T03:00:56.642Z,10.23
2022-11-10T03:03:24.829Z,10.33
2022-11-10T03:05:52.732Z,11.57
2022-11-10T03:08:20.572Z,11.00
2022-11-10T03:10:48.476Z,15.40
2022-11-10T03:13:17.690Z,11.67
2022-11-10T03:15:45.476Z,10.47
2022-11-10T03:18:13.253Z,9.40
2022-11-10T03:20:41.045Z,10.83
2022-11-10T03:23:09.247Z,18.67
2022-11-10T03:25:38.467Z,8.77
2022-11-10T03:28:06.227Z,13.90
2022-11-10T03:30:35.525Z,9.17
2022-11-10T03:33:03.493Z,9.47
2022-11-10T03:35:31.612Z,10.80
2022-11-10T03:37:59.530Z,9.27
2022-11-10T03:40:27.464Z,15.50
2022-11-10T03:42:55.374Z,9.83
2022-11-10T03:45:23.240Z,12.70
2022-11-10T03:47:52.952Z,13.97
2022-11-10T03:50:20.928Z,8.17
2022-11-10T03:52:48.787Z,6.17
2022-11-10T03:55:18.784Z,9.03
2022-11-10T03:57:46.546Z,11.57
2022-11-10T04:00:15.617Z,8.27
2022-11-10T04:02:43.491Z,12.23
2022-11-10T04:05:30.409Z,13.37
2022-11-10T04:08:19.414Z,10.80
2022-11-10T04:10:47.409Z,12.23
2022-11-10T04:13:32.507Z,11.73
2022-11-10T04:16:00.378Z,11.57
2022-11-10T04:18:29.812Z,14.27
2022-11-10T04:21:01.667Z,9.60
2022-11-10T04:23:34.878Z,10.87
2022-11-10T04:26:22.827Z,16.10
2022-11-10T04:28:52.564Z,10.87
2022-11-10T04:31:22.344Z,10.40
2022-11-10T04:33:50.966Z,10.07
2022-11-10T04:36:21.824Z,12.37
2022-11-10T04:38:49.945Z,13.30
2022-11-10T04:41:18.566Z,10.37
2022-11-10T04:43:46.438Z,11.30
2022-11-10T04:46:24.395Z,13.03
2022-11-10T04:48:53.638Z,16.93
2022-11-10T04:51:25.765Z,11.73
2022-11-10T04:53:53.895Z,18.53
2022-11-10T04:56:23.078Z,11.97
2022-11-10T04:58:51.516Z,15.57
2022-11-10T05:01:21.493Z,12.47
2022-11-10T05:03:50.355Z,14.53
2022-11-10T05:06:19.577Z,13.73
2022-11-10T05:08:49.127Z,8.93
2022-11-10T05:11:17.865Z,12.50
2022-11-10T05:13:46.793Z,11.37
2022-11-10T05:16:15.347Z,12.60
2022-11-10T05:18:43.615Z,13.63
2022-11-10T05:21:11.585Z,12.13
2022-11-10T05:23:39.607Z,17.33
2022-11-10T05:26:10.854Z,9.07
2022-11-10T05:28:39.487Z,14.37
2022-11-10T05:31:07.766Z,15.90
2022-11-10T05:33:36.398Z,12.50
2022-11-10T05:36:04.934Z,14.27
2022-11-10T05:38:33.129Z,9.93
2022-11-10T05:41:01.070Z,10.67
2022-11-10T05:43:30.588Z,14.33
2022-11-10T05:45:58.602Z,13.87
2022-11-10T05:48:26.414Z,11.33
2022-11-10T05:50:54.389Z,17.50
2022-11-10T05:53:22.624Z,18.20
2022-11-10T05:55:50.689Z,14.87
2022-11-10T05:58:18.810Z,11.90
2022-11-10T06:00:48.105Z,12.13
2022-11-10T06:03:18.174Z,10.30
2022-11-10T06:05:47.177Z,9.03
2022-11-10T06:08:15.544Z,15.77
2022-11-10T06:10:43.520Z,11.43
2022-11-10T06:13:11.896Z,11.57
2022-11-10T06:15:40.154Z,13.27
2022-11-10T06:18:09.346Z,10.33
2022-11-10T06:20:37.191Z,11.77
2022-11-10T06:23:07.041Z,13.53
2022-11-10T06:25:37.084Z,12.17
2022-11-10T06:28:05.484Z,10.57
2022-11-10T06:30:35.407Z,11.93
2022-11-10T06:33:03.785Z,18.30
2022-11-10T06:35:33.395Z,14.33
2022-11-10T06:38:03.200Z,13.70
2022-11-10T06:40:31.948Z,17.17
2022-11-10T06:43:00.167Z,15.80
2022-11-10T06:45:29.221Z,10.97
2022-11-10T06:48:04.669Z,18.73
2022-11-10T06:50:34.576Z,15.43
2022-11-10T06:53:02.979Z,12.07
2022-11-10T06:55:31.284Z,13.17
2022-11-10T06:57:59.309Z,11.77
2022-11-10T07:00:28.405Z,13.67
2022-11-10T07:03:03.949Z,13.30
2022-11-10T07:05:35.206Z,13.77
2022-11-10T07:08:04.135Z,12.20
2022-11-10T07:10:32.325Z,13.87
2022-11-10T07:13:00.447Z,19.00
2022-11-10T07:15:28.455Z,12.73
2022-11-10T07:17:56.460Z,13.07
2022-11-10T07:20:26.044Z,15.33
2022-11-10T07:23:00.756Z,15.47
2022-11-10T07:25:29.488Z,15.37
2022-11-10T07:27:58.648Z,14.20
2022-11-10T07:30:28.004Z,11.40
2022-11-10T07:33:00.531Z,16.33
2022-11-10T07:35:29.315Z,15.47
2022-11-10T07:37:57.752Z,15.07
2022-11-10T07:40:27.095Z,14.40
2022-11-10T07:42:54.928Z,18.10
2022-11-10T07:45:22.622Z,15.70
2022-11-10T07:47:50.513Z,15.20
2022-11-10T07:50:19.005Z,16.60
2022-11-10T07:52:46.648Z,14.47
2022-11-10T07:55:14.347Z,11.87
2022-11-10T07:57:43.511Z,12.67
2022-11-10T08:00:13.468Z,15.90
2022-11-10T08:02:41.356Z,15.43
2022-11-10T08:05:09.959Z,17.37
2022-11-10T08:07:37.776Z,19.80
2022-11-10T08:10:06.051Z,11.57
2022-11-10T08:12:33.988Z,11.33
2022-11-10T08:15:03.177Z,10.57
2022-11-10T08:17:30.919Z,13.57
2022-11-10T08:19:58.581Z,14.07
2022-11-10T08:22:26.651Z,12.00
2022-11-10T08:24:54.291Z,11.20
2022-11-10T08:27:21.998Z,11.10
2022-11-10T08:29:49.730Z,10.23
2022-11-10T08:32:18.818Z,12.67
2022-11-10T08:34:46.581Z,11.13
2022-11-10T08:37:14.297Z,15.00
2022-11-10T08:39:42.153Z,14.83
2022-11-10T08:42:09.925Z,11.53
2022-11-10T08:44:37.680Z,18.40
2022-11-10T08:47:05.578Z,13.50
2022-11-10T08:49:34.851Z,9.53
2022-11-10T08:52:02.666Z,22.77
2022-11-10T08:54:30.537Z,10.57
2022-11-10T08:56:58.316Z,13.57
2022-11-10T08:59:25.917Z,14.07
2022-11-10T09:01:53.677Z,14.20
2022-11-10T09:04:21.512Z,13.43
2022-11-10T09:06:50.617Z,13.33
2022-11-10T09:09:18.491Z,8.30
2022-11-10T09:11:46.208Z,10.60
2022-11-10T09:14:14.140Z,10.77
2022-11-10T09:16:41.980Z,9.07
2022-11-10T09:19:09.879Z,10.98
2022-11-10T09:21:37.718Z,9.65
2022-11-10T09:24:08.177Z,9.98
2022-11-10T09:26:36.111Z,12.50
2022-11-10T09:29:03.913Z,7.72
2022-11-10T09:31:31.544Z,10.80
2022-11-10T09:33:59.216Z,7.53
2022-11-10T09:36:26.954Z,13.07
2022-11-10T09:38:54.639Z,9.05
2022-11-10T09:41:23.610Z,8.73
2022-11-10T09:44:02.540Z,9.85
2022-11-10T09:46:36.675Z,8.40
2022-11-10T09:49:10.673Z,9.80
2022-11-10T09:51:47.103Z,7.50
2022-11-10T09:54:30.354Z,9.65
2022-11-10T09:57:01.590Z,9.85
2022-11-10T09:59:32.239Z,9.75
2022-11-10T10:02:04.155Z,6.72
2022-11-10T10:04:51.964Z,6.32
2022-11-10T10:07:26.392Z,8.27
2022-11-10T10:10:01.935Z,10.95
2022-11-10T10:12:50.855Z,11.45
2022-11-10T10:15:29.687Z,9.98
2022-11-10T10:18:11.124Z,7.28
2022-11-10T10:20:50.818Z,10.77
2022-11-10T10:23:40.699Z,6.60
2022-11-10T10:26:16.600Z,6.20
2022-11-10T10:28:48.019Z,8.65
2022-11-10T10:31:20.978Z,8.07
2022-11-10T10:33:49.622Z,10.20
2022-11-10T10:36:20.827Z,9.98
2022-11-10T10:38:51.934Z,7.60
2022-11-10T10:41:25.207Z,10.68
2022-11-10T10:43:57.150Z,9.23
2022-11-10T10:46:28.390Z,6.47
2022-11-10T10:49:29.944Z,10.45
2022-11-10T10:52:06.840Z,8.18
2022-11-10T10:54:36.565Z,5.20
2022-11-10T10:57:07.578Z,15.05
2022-11-10T10:59:36.643Z,6.47
2022-11-10T11:02:04.313Z,8.90
2022-11-10T11:04:34.836Z,5.38
2022-11-10T11:07:04.510Z,7.25
2022-11-10T11:09:40.941Z,8.45
2022-11-10T11:12:11.986Z,8.27
2022-11-10T11:14:45.862Z,5.65
2022-11-10T11:17:18.752Z,8.10
2022-11-10T11:19:46.752Z,8.13
2022-11-10T11:22:46.310Z,7.60
2022-11-10T11:25:23.549Z,6.28
2022-11-10T11:28:03.818Z,7.85
2022-11-10T11:30:47.765Z,5.05
2022-11-10T11:33:34.432Z,4.70
2022-11-10T11:36:10.340Z,8.40
2022-11-10T11:38:51.818Z,7.22
2022-11-10T11:41:31.373Z,9.43
2022-11-10T11:44:20.289Z,6.97
2022-11-10T11:47:00.302Z,4.30
2022-11-10T11:50:00.087Z,8.50
2022-11-10T11:52:36.044Z,6.35
2022-11-10T11:55:14.849Z,11.15
2022-11-10T11:58:00.143Z,5.57
2022-11-10T12:00:30.261Z,7.82
2022-11-10T12:03:23.094Z,6.88
2022-11-10T12:05:59.058Z,10.65
2022-11-10T12:08:37.670Z,7.88
2022-11-10T12:11:11.587Z,9.88
2022-11-10T12:13:50.026Z,5.18
2022-11-10T12:16:23.852Z,5.90
2022-11-10T12:19:05.491Z,8.27
2022-11-10T12:21:43.481Z,7.35
2022-11-10T12:24:46.271Z,4.38
2022-11-10T12:27:18.842Z,7.03
2022-11-10T12:29:52.267Z,8.48
2022-11-10T12:32:26.889Z,6.93
2022-11-10T12:35:00.199Z,5.80
2022-11-10T12:37:33.234Z,4.18
2022-11-10T12:40:06.810Z,5.10
2022-11-10T12:42:38.780Z,6.47
2022-11-10T12:45:09.682Z,4.68
2022-11-10T12:47:43.082Z,12.38
2022-11-10T12:50:35.233Z,9.95
2022-11-10T12:53:06.904Z,7.28
2022-11-10T12:55:39.540Z,5.13
2022-11-10T12:58:07.956Z,7.40
2022-11-10T13:00:42.693Z,4.82
2022-11-10T13:03:16.151Z,5.97
2022-11-10T13:05:46.232Z,12.23
2022-11-10T13:08:34.120Z,6.40
2022-11-10T13:11:06.510Z,10.23
2022-11-10T13:13:46.465Z,6.18
2022-11-10T13:16:49.454Z,5.55
2022-11-10T13:19:52.891Z,8.50
2022-11-10T13:22:32.748Z,8.93
2022-11-10T13:25:38.780Z,5.87
2022-11-10T13:28:09.772Z,7.60
2022-11-10T13:30:46.049Z,8.57
2022-11-10T13:33:36.940Z,9.17
2022-11-10T13:36:06.657Z,7.97
2022-11-10T13:38:40.036Z,5.37
2022-11-10T13:41:25.231Z,7.33
2022-11-10T13:43:54.508Z,5.23
2022-11-10T13:46:32.176Z,8.03
2022-11-10T13:49:47.393Z,4.57
2022-11-10T13:52:20.246Z,9.00
2022-11-10T13:55:03.680Z,6.03
2022-11-10T13:57:36.431Z,6.77
2022-11-10T14:00:24.501Z,3.37
2022-11-10T14:02:55.051Z,6.37
2022-11-10T14:06:04.730Z,9.23
2022-11-10T14:08:47.243Z,6.90
2022-11-10T14:11:20.776Z,9.37
2022-11-10T14:13:53.879Z,5.97
2022-11-10T14:16:24.206Z,4.87
2022-11-10T14:18:58.899Z,4.50
2022-11-10T14:21:33.368Z,7.30
2022-11-10T14:24:12.344Z,7.13
2022-11-10T14:26:43.923Z,6.83
2022-11-10T14:29:34.648Z,10.57
2022-11-10T14:32:05.588Z,4.73
2022-11-10T14:34:41.847Z,6.07
2022-11-10T14:37:16.626Z,8.73
2022-11-10T14:39:45.859Z,9.23
2022-11-10T14:42:20.291Z,7.27
2022-11-10T14:44:48.589Z,8.80
2022-11-10T14:47:28.244Z,5.20
2022-11-10T14:50:17.147Z,3.83
2022-11-10T14:52:48.012Z,10.60
2022-11-10T14:55:20.733Z,6.97
2022-11-10T14:57:51.652Z,8.50
2022-11-10T15:00:25.100Z,10.73
2022-11-10T15:02:54.210Z,7.47
2022-11-10T15:05:22.795Z,6.47
2022-11-10T15:07:54.649Z,9.67
2022-11-10T15:10:26.563Z,8.13
2022-11-10T15:13:06.118Z,9.10
2022-11-10T15:15:33.812Z,6.70
2022-11-10T15:18:01.513Z,9.27
2022-11-10T15:20:40.177Z,6.23
2022-11-10T15:23:22.503Z,8.30
2022-11-10T15:25:53.351Z,12.13
2022-11-10T15:28:29.045Z,10.07
2022-11-10T15:30:59.854Z,9.63
2022-11-10T15:33:31.264Z,9.37
2022-11-10T15:36:15.915Z,7.33
2022-11-10T15:38:43.651Z,6.90
2022-11-10T15:41:17.341Z,10.83
2022-11-10T15:43:45.095Z,11.53
2022-11-10T15:46:18.937Z,8.50
2022-11-10T15:48:49.594Z,7.73
2022-11-10T15:51:24.672Z,9.50
2022-11-10T15:53:54.667Z,8.63
2022-11-10T15:56:25.826Z,6.93
2022-11-10T15:59:00.574Z,11.00
2022-11-10T16:01:30.000Z,10.87
2022-11-10T16:03:58.001Z,9.43
2022-11-10T16:06:25.670Z,12.00
2022-11-10T16:08:53.430Z,8.83
2022-11-10T16:11:24.625Z,8.63
2022-11-10T16:13:53.105Z,10.10
2022-11-10T16:16:23.787Z,13.77
2022-11-10T16:18:51.753Z,8.67
2022-11-10T16:21:21.800Z,10.13
2022-11-10T16:23:49.867Z,10.00
2022-11-10T16:26:21.162Z,16.03
2022-11-10T16:28:51.133Z,10.17
2022-11-10T16:31:21.864Z,7.00
2022-11-10T16:33:50.386Z,10.20
2022-11-10T16:36:25.741Z,11.00
2022-11-10T16:38:54.509Z,10.17
2022-11-10T16:41:22.619Z,8.93
2022-11-10T16:43:51.718Z,9.97
2022-11-10T16:46:22.365Z,9.37
2022-11-10T16:48:51.880Z,9.43
2022-11-10T16:51:19.797Z,9.50
2022-11-10T16:53:47.678Z,9.07
2022-11-10T16:56:16.803Z,10.57
2022-11-10T16:58:44.416Z,9.83
2022-11-10T17:01:19.729Z,11.47
2022-11-10T17:03:50.447Z,10.67
2022-11-10T17:06:19.742Z,12.47
2022-11-10T17:08:48.571Z,12.47
2022-11-10T17:11:16.357Z,13.17
2022-11-10T17:13:44.661Z,9.10
2022-11-10T17:16:22.018Z,18.90
2022-11-10T17:18:50.627Z,14.53
2022-11-10T17:21:19.430Z,12.77
2022-11-10T17:23:47.247Z,10.80
2022-11-10T17:26:17.216Z,11.80
2022-11-10T17:28:44.962Z,11.23
2022-11-10T17:31:14.230Z,10.50
2022-11-10T17:33:41.859Z,13.53
2022-11-10T17:36:14.995Z,11.07
2022-11-10T17:38:43.921Z,10.33
2022-11-10T17:41:16.329Z,9.17
2022-11-10T17:43:45.955Z,10.37
2022-11-10T17:46:15.873Z,11.87
2022-11-10T17:48:44.086Z,8.70
2022-11-10T17:51:19.202Z,19.13
2022-11-10T17:53:46.983Z,9.43
2022-11-10T17:56:15.027Z,14.83
2022-11-10T17:58:42.726Z,13.83
2022-11-10T18:01:16.640Z,12.90
2022-11-10T18:03:44.377Z,11.43
2022-11-10T18:06:14.725Z,13.40
2022-11-10T18:08:42.948Z,14.33
2022-11-10T18:11:11.581Z,11.40
2022-11-10T18:13:40.431Z,14.17
2022-11-10T18:16:09.561Z,11.57
2022-11-10T18:18:39.034Z,15.87
2022-11-10T18:21:07.360Z,14.97
2022-11-10T18:23:35.095Z,8.67
2022-11-10T18:26:06.991Z,11.17
2022-11-10T18:28:35.089Z,15.77
2022-11-10T18:31:07.481Z,11.37
2022-11-10T18:33:35.133Z,11.67
2022-11-10T18:36:05.037Z,11.30
2022-11-10T18:38:32.963Z,9.93
2022-11-10T18:41:24.463Z,12.40
2022-11-10T18:43:52.333Z,14.30
2022-11-10T18:46:20.051Z,13.83
2022-11-10T18:48:47.761Z,9.93
2022-11-10T18:51:17.110Z,9.47
2022-11-10T18:53:44.884Z,10.57
2022-11-10T18:56:14.251Z,9.83
2022-11-10T18:58:42.439Z,11.77
2022-11-10T19:01:11.724Z,12.13
2022-11-10T19:03:39.441Z,12.60
2022-11-10T19:06:10.562Z,12.80
2022-11-10T19:08:40.352Z,12.17
2022-11-10T19:11:09.311Z,9.53
2022-11-10T19:13:37.785Z,10.80
2022-11-10T19:16:07.613Z,10.40
2022-11-10T19:18:35.291Z,10.67
2022-11-10T19:21:06.436Z,12.70
2022-11-10T19:23:34.645Z,14.90
2022-11-10T19:26:04.674Z,14.90
2022-11-10T19:28:32.730Z,12.60
2022-11-10T19:31:01.445Z,10.73
2022-11-10T19:33:30.470Z,14.03
2022-11-10T19:36:03.254Z,13.17
2022-11-10T19:38:31.060Z,13.87
2022-11-10T19:40:59.116Z,12.97
2022-11-10T19:43:30.768Z,11.00
2022-11-10T19:46:01.970Z,10.30
2022-11-10T19:48:30.370Z,14.23
2022-11-10T19:51:00.370Z,12.10
2022-11-10T19:53:28.242Z,13.67
2022-11-10T19:56:01.640Z,12.90
2022-11-10T19:58:31.322Z,14.27
2022-11-10T20:01:00.096Z,16.30
2022-11-10T20:03:29.942Z,13.57
2022-11-10T20:06:01.454Z,14.43
2022-11-10T20:08:29.735Z,14.10
2022-11-10T20:11:01.212Z,14.80
2022-11-10T20:13:30.761Z,13.57
2022-11-10T20:15:58.399Z,15.03
2022-11-10T20:18:26.052Z,15.27
2022-11-10T20:20:53.724Z,12.00
2022-11-10T20:23:21.680Z,17.50
2022-11-10T20:25:49.442Z,13.90
2022-11-10T20:28:17.088Z,16.33
2022-11-10T20:30:46.049Z,20.17
2022-11-10T20:33:13.736Z,20.23
2022-11-10T20:35:42.903Z,12.83
2022-11-10T20:38:11.109Z,17.00
2022-11-10T20:40:44.470Z,19.60
2022-11-10T20:43:13.985Z,21.13
2022-11-10T20:45:41.735Z,13.83
2022-11-10T20:48:10.765Z,14.30
2022-11-10T20:50:40.889Z,18.03
2022-11-10T20:53:08.498Z,17.87
2022-11-10T20:55:53.204Z,17.50
2022-11-10T20:58:21.336Z,20.23
2022-11-10T21:00:48.945Z,17.23
2022-11-10T21:03:17.896Z,17.00
2022-11-10T21:05:45.908Z,18.10
2022-11-10T21:08:13.604Z,21.30
2022-11-10T21:10:41.369Z,17.43
2022-11-10T21:13:08.082Z,21.77
2022-11-10T21:15:38.289Z,17.47
2022-11-10T21:18:05.967Z,19.77
2022-11-10T21:20:35.327Z,19.20
2022-11-10T21:23:03.673Z,21.93
2022-11-10T21:25:31.496Z,19.07
2022-11-10T21:27:59.162Z,23.23
2022-11-10T21:30:26.787Z,23.57
2022-11-10T21:32:54.398Z,24.83
2022-11-10T21:35:24.096Z,24.23
2022-11-10T21:37:54.588Z,24.07
2022-11-10T21:40:22.208Z,24.27
2022-11-10T21:42:54.934Z,21.40
2022-11-10T21:45:22.568Z,20.23
2022-11-10T21:47:50.213Z,21.20
2022-11-10T21:50:18.769Z,16.67
2022-11-10T21:52:46.337Z,18.23
2022-11-10T21:55:15.391Z,17.30
2022-11-10T21:57:43.104Z,14.77
2022-11-10T22:00:12.101Z,21.20
2022-11-10T22:02:39.703Z,20.40
2022-11-10T22:05:07.734Z,17.57
2022-11-10T22:07:35.353Z,15.47
2022-11-10T22:10:20.689Z,15.50
2022-11-10T22:13:07.190Z,19.27
2022-11-10T22:15:52.405Z,16.30
2022-11-10T22:18:38.327Z,17.67
2022-11-10T22:21:06.856Z,19.40
2022-11-10T22:23:52.242Z,15.20
2022-11-10T22:26:20.423Z,15.97
2022-11-10T22:28:49.449Z,20.47
2022-11-10T22:31:17.084Z,17.30
2022-11-10T22:33:44.809Z,19.23
2022-11-10T22:36:14.169Z,24.80
2022-11-10T22:38:42.595Z,20.60
2022-11-10T22:41:32.176Z,21.23
2022-11-10T22:44:04.653Z,20.90
2022-11-10T22:46:34.095Z,21.07
2022-11-10T22:49:02.300Z,24.13
2022-11-10T22:51:32.807Z,22.17
2022-11-10T22:54:01.288Z,26.10
2022-11-10T22:56:29.808Z,25.73
2022-11-10T22:59:00.116Z,24.10
2022-11-10T23:01:29.679Z,20.80
2022-11-10T23:03:58.518Z,22.83
2022-11-10T23:06:26.162Z,24.43
2022-11-10T23:08:54.236Z,24.93
2022-11-10T23:11:23.949Z,18.63
2022-11-10T23:13:52.008Z,20.77
2022-11-10T23:16:21.659Z,22.93
2022-11-10T23:18:52.349Z,24.97
2022-11-10T23:21:22.549Z,23.13
2022-11-10T23:23:50.830Z,18.63
2022-11-10T23:26:20.012Z,20.73
2022-11-10T23:28:48.006Z,20.13
2022-11-10T23:31:17.841Z,20.93
2022-11-10T23:33:47.319Z,18.37
2022-11-10T23:36:18.388Z,22.90
2022-11-10T23:38:47.048Z,16.23
2022-11-10T23:41:16.140Z,20.07
2022-11-10T23:43:44.222Z,21.33
2022-11-10T23:46:13.019Z,18.33
2022-11-10T23:48:42.015Z,15.27
2022-11-10T23:51:12.377Z,17.60
2022-11-10T23:53:41.826Z,17.43
2022-11-10T23:56:13.581Z,12.90
2022-11-10T23:58:41.819Z,15.37
